Time;durP1;ratioP1;P1;durP2;ratioP2;P2;SDS_P1;SDS_P2;PMS_P1;PMS_P2;Temp;Humidity;BMP_temperature;BMP_pressure;BME280_temperature;BME280_humidity;BME280_pressure;Samples;Min_cycle;Max_cycle;Signal;HPM_P1;HPM_P2
2022/09/22 19:05:31;;;;;;;202.10;116.45;;;;;;;6.98;73.22;101309.60;1777482;78;22030;-73
2022/09/22 19:07:58;;;;;;;201.82;108.87;;;;;;;6.88;73.32;101305.17;1741693;81;21046;-73
2022/09/22 19:10:24;;;;;;;263.45;139.07;;;;;;;6.85;73.45;101310.72;1744140;81;21043;-73
2022/09/22 19:12:50;;;;;;;242.18;122.22;;;;;;;6.85;73.62;101310.72;1742308;80;21026;-72
2022/09/22 19:15:17;;;;;;;202.50;103.97;;;;;;;6.86;73.83;101300.48;1734730;80;21062;-73
2022/09/22 19:17:45;;;;;;;235.13;125.70;;;;;;;6.87;74.07;101303.00;1726792;82;21114;-72
2022/09/22 19:20:13;;;;;;;201.25;104.35;;;;;;;6.93;74.36;101300.35;1741638;80;20954;-72
2022/09/22 19:22:39;;;;;;;227.80;121.67;;;;;;;7.00;74.66;101310.82;1731533;81;21785;-73
2022/09/22 19:25:06;;;;;;;236.12;126.00;;;;;;;7.05;75.00;101308.61;1741275;81;21018;-72
2022/09/22 19:27:33;;;;;;;497.55;245.52;;;;;;;7.09;75.32;101312.70;1738620;80;21085;-73
2022/09/22 19:30:00;;;;;;;239.12;124.97;;;;;;;7.09;75.66;101307.41;1738652;80;21061;-72
2022/09/22 19:32:26;;;;;;;195.07;111.47;;;;;;;7.12;76.00;101311.13;1733865;81;21003;-72
2022/09/22 19:34:53;;;;;;;152.27;87.08;;;;;;;7.12;76.39;101308.47;1734981;81;21138;-73
2022/09/22 19:37:20;;;;;;;112.30;63.35;;;;;;;7.11;76.72;101305.97;1735241;80;21066;-73
2022/09/22 19:39:48;;;;;;;119.30;64.87;;;;;;;7.09;77.06;101303.42;1729632;81;21399;-73
2022/09/22 19:42:14;;;;;;;120.62;66.70;;;;;;;7.09;77.38;101307.41;1742675;80;21707;-73
2022/09/22 19:44:41;;;;;;;152.72;85.67;;;;;;;7.06;77.72;101307.66;1739194;81;21728;-73
2022/09/22 19:47:07;;;;;;;161.10;86.30;;;;;;;7.03;78.03;101307.91;1735028;82;22220;-74
2022/09/22 19:49:33;;;;;;;187.95;95.90;;;;;;;7.03;78.39;101301.28;1737647;80;21073;-72
2022/09/22 19:51:59;;;;;;;180.52;95.45;;;;;;;7.08;78.73;101295.10;1745716;81;21093;-72
2022/09/22 19:54:25;;;;;;;151.95;87.60;;;;;;;7.18;79.03;101300.01;1735655;80;21059;-73
2022/09/22 19:56:51;;;;;;;158.52;88.15;;;;;;;7.15;79.25;101303.39;1734521;81;21063;-73
2022/09/22 19:59:18;;;;;;;173.07;84.58;;;;;;;7.11;79.52;101300.66;1738642;80;21054;-73
2022/09/22 20:01:46;;;;;;;166.50;77.55;;;;;;;7.11;79.80;101297.50;1737259;80;21512;-73
2022/09/22 20:04:16;;;;;;;142.35;67.92;;;;;;;7.09;80.07;101302.09;1743484;79;21109;-72
2022/09/22 20:06:44;;;;;;;124.00;63.55;;;;;;;7.09;80.34;101302.09;1753436;79;21038;-72
2022/09/22 20:09:10;;;;;;;159.63;83.25;;;;;;;7.19;80.56;101304.83;1718255;81;21792;-72
2022/09/22 20:11:43;;;;;;;206.68;106.78;;;;;;;7.20;80.76;101306.05;1734777;81;21877;-74
2022/09/22 20:14:18;;;;;;;237.25;125.10;;;;;;;7.22;81.01;101306.75;1737539;81;21094;-73
2022/09/22 20:16:51;;;;;;;210.82;115.35;;;;;;;7.22;81.21;101299.27;1741515;81;21059;-74
2022/09/22 20:19:18;;;;;;;150.70;84.37;;;;;;;7.18;81.46;101300.52;1737754;81;20999;-73
2022/09/22 20:21:44;;;;;;;134.52;77.40;;;;;;;7.15;81.63;101300.27;1722405;81;21054;-73
2022/09/22 20:24:12;;;;;;;172.72;88.25;;;;;;;7.12;81.79;101307.15;1734623;81;21526;-73
2022/09/22 20:26:41;;;;;;;193.78;91.35;;;;;;;7.03;81.94;101301.28;1747309;81;21025;-73
2022/09/22 20:29:08;;;;;;;225.80;104.47;;;;;;;6.94;82.11;101301.53;1736200;80;21019;-73
2022/09/22 20:31:35;;;;;;;219.75;100.02;;;;;;;6.92;82.32;101294.67;1733450;81;21076;-73
2022/09/22 20:34:04;;;;;;;227.97;104.03;;;;;;;6.95;82.51;101298.41;1738899;81;21014;-73
2022/09/22 20:36:31;;;;;;;228.85;95.70;;;;;;;6.97;82.68;101295.98;1745662;81;21393;-72
2022/09/22 20:38:58;;;;;;;210.43;97.72;;;;;;;7.06;82.84;101299.70;1739001;80;21022;-72
2022/09/22 20:41:25;;;;;;;182.68;80.62;;;;;;;7.00;82.97;101297.56;1729597;81;21017;-72
2022/09/22 20:43:52;;;;;;;187.12;84.10;;;;;;;6.95;83.12;101301.91;1729438;80;21015;-73
2022/09/22 20:46:18;;;;;;;152.32;68.70;;;;;;;6.95;83.25;101298.41;1731462;80;21031;-73
2022/09/22 20:48:44;;;;;;;157.50;72.27;;;;;;;6.89;83.37;101294.45;1735347;80;21713;-72
2022/09/22 20:51:13;;;;;;;167.35;74.37;;;;;;;6.86;83.50;101297.84;1731563;81;21015;-73
2022/09/22 20:53:39;;;;;;;153.17;67.83;;;;;;;6.80;83.62;101295.66;1739510;81;21094;-72
2022/09/22 20:56:09;;;;;;;163.30;73.17;;;;;;;6.82;83.80;101297.24;1740785;80;21308;-72
2022/09/22 20:58:43;;;;;;;202.82;94.45;;;;;;;6.75;83.86;101295.20;1734598;81;21042;-72
2022/09/22 21:01:11;;;;;;;155.50;73.45;;;;;;;6.72;84.01;101295.45;1738642;81;21158;-72
2022/09/22 21:03:37;;;;;;;132.97;66.15;;;;;;;6.77;84.14;101288.80;1739719;80;21101;-72
2022/09/22 21:06:06;;;;;;;142.95;72.60;;;;;;;6.71;84.21;101289.30;1735894;81;21127;-72
2022/09/22 21:11:19;;;;;;;188.87;97.22;;;;;;;6.72;84.51;101292.29;1717944;82;21062;-73
2022/09/22 21:13:45;;;;;;;187.82;101.90;;;;;;;6.67;84.65;101299.79;1731418;82;21560;-73
2022/09/22 21:16:14;;;;;;;183.75;98.35;;;;;;;6.61;84.73;101292.81;1733474;82;21012;-73
2022/09/22 21:18:40;;;;;;;189.90;100.78;;;;;;;6.59;84.80;101295.58;1735443;80;21118;-73
2022/09/22 21:21:07;;;;;;;153.42;79.25;;;;;;;6.63;84.91;101289.06;1735253;80;21575;-73
2022/09/22 21:23:33;;;;;;;129.63;66.05;;;;;;;6.70;85.03;101296.04;1735387;80;21539;-73
2022/09/22 21:26:04;;;;;;;124.78;65.47;;;;;;;6.70;85.12;101294.72;1740570;80;21875;-73
2022/09/22 21:28:31;;;;;;;112.03;63.58;;;;;;;6.61;85.20;101296.79;1726077;82;21051;-72
2022/09/22 21:30:59;;;;;;;133.63;69.90;;;;;;;6.62;85.31;101297.13;1729929;80;21114;-73
2022/09/22 21:33:26;;;;;;;149.97;75.47;;;;;;;6.64;85.41;101289.92;1744569;80;21062;-73
2022/09/22 21:36:14;;;;;;;152.27;77.20;;;;;;;6.66;85.54;101294.59;1746989;82;21055;-72
2022/09/22 21:38:37;;;;;;;147.15;76.50;;;;;;;6.69;85.64;101289.05;1721361;82;21189;-73
2022/09/22 21:41:07;;;;;;;138.45;69.07;;;;;;;6.63;85.67;101290.87;1738904;81;21040;-73
2022/09/22 21:43:34;;;;;;;224.22;107.65;;;;;;;6.61;85.77;101292.81;1736270;80;21110;-72
2022/09/22 21:46:05;;;;;;;159.85;78.35;;;;;;;6.57;85.83;101289.56;1728117;82;21006;-73
2022/09/22 21:48:35;;;;;;;328.67;165.90;;;;;;;6.56;85.86;101285.70;1733201;82;21496;-72
2022/09/22 21:51:04;;;;;;;186.47;92.10;;;;;;;6.42;85.91;101283.67;1730959;82;21010;-73
2022/09/22 21:53:30;;;;;;;;;;;;;;;6.39;86.02;101279.95;1730952;82;21322;-72
2022/09/22 21:56:05;;;;;;;128.53;62.50;;;;;;;6.44;86.09;101279.08;1743641;81;20205;-73
2022/09/22 21:58:35;;;;;;;105.58;52.48;;;;;;;6.42;86.13;101279.70;1732528;82;21095;-74
2022/09/22 22:01:10;;;;;;;104.85;51.95;;;;;;;6.35;86.18;101282.47;1739324;80;21059;-74
2022/09/22 22:03:40;;;;;;;98.95;51.45;;;;;;;6.41;86.25;101283.30;1747924;80;21153;-74
2022/09/22 22:06:27;;;;;;;124.95;66.35;;;;;;;6.43;86.30;101289.34;1723028;82;21066;-74
2022/09/22 22:09:03;;;;;;;315.55;181.37;;;;;;;6.30;86.37;101285.11;1717132;82;21006;-74
2022/09/22 22:11:33;;;;;;;99.30;49.30;;;;;;;6.25;86.43;101288.62;1716363;82;21018;-74
2022/09/22 22:14:01;;;;;;;98.42;50.38;;;;;;;6.22;86.54;101295.00;1732503;81;21059;-74
2022/09/22 22:16:33;;;;;;;88.22;47.53;;;;;;;6.19;86.57;101292.60;1744593;82;21067;-74
2022/09/22 22:19:00;;;;;;;99.65;54.67;;;;;;;6.15;86.61;101296.92;1720818;82;21524;-74
2022/09/22 22:21:28;;;;;;;190.53;84.90;;;;;;;6.21;86.67;101295.96;1745092;82;20987;-74
2022/09/22 22:24:26;;;;;;;113.28;56.80;;;;;;;6.23;86.71;101286.55;1729013;82;21057;-74
2022/09/22 22:26:25;;;;;;;152.17;72.80;;;;;;;6.09;86.71;101284.98;1728356;82;21142;-74
2022/09/22 22:28:51;;;;;;;155.03;72.80;;;;;;;6.14;86.82;101289.45;1731904;81;21142;-74
2022/09/22 22:31:21;;;;;;;131.10;66.25;;;;;;;6.19;86.91;101284.66;1735145;82;21454;-74
2022/09/22 22:33:48;;;;;;;141.05;68.80;;;;;;;6.20;86.97;101285.47;1726483;81;21466;-74
2022/09/22 22:36:16;;;;;;;120.55;66.77;;;;;;;6.19;87.08;101283.33;1730834;82;21035;-74
2022/09/22 22:38:43;;;;;;;84.28;46.65;;;;;;;6.16;87.11;101280.89;1738368;82;21093;-75
2022/09/22 22:41:14;;;;;;;84.42;45.23;;;;;;;6.14;87.17;101276.22;1725868;82;21132;-75
2022/09/22 22:43:41;;;;;;;109.57;58.15;;;;;;;6.19;87.19;101266.12;1728150;82;21125;-75
2022/09/22 22:46:08;;;;;;;103.12;56.25;;;;;;;6.12;87.21;101275.50;1729509;81;21022;-75
2022/09/22 22:48:36;;;;;;;186.82;93.42;;;;;;;6.07;87.29;101275.01;1726666;82;20980;-74
2022/09/22 22:51:14;;;;;;;103.67;52.53;;;;;;;6.04;87.39;101272.61;1720637;82;21500;-73
2022/09/22 22:53:40;;;;;;;76.82;45.43;;;;;;;5.99;87.41;101266.81;1720565;82;21212;-72
2022/09/22 22:56:15;;;;;;;74.35;45.38;;;;;;;6.02;87.45;101269.22;1720401;82;21267;-72
2022/09/22 22:58:42;;;;;;;67.35;42.65;;;;;;;5.90;87.38;101270.19;1728309;82;21063;-73
2022/09/22 23:01:18;;;;;;;67.87;41.35;;;;;;;5.82;87.41;101268.09;1726584;81;20957;-73
2022/09/22 23:03:56;;;;;;;69.80;39.78;;;;;;;5.81;87.49;101262.91;1727122;81;21521;-73
2022/09/22 23:06:30;;;;;;;75.22;42.20;;;;;;;5.86;87.56;101270.90;1707322;83;21136;-73
2022/09/22 23:08:57;;;;;;;78.10;41.98;;;;;;;5.84;87.61;101264.02;1744581;81;21465;-72
2022/09/22 23:11:31;;;;;;;69.17;39.63;;;;;;;5.84;87.65;101262.69;1752814;80;21030;-72
2022/09/22 23:14:00;;;;;;;66.15;38.00;;;;;;;5.83;87.67;101258.34;1728953;80;22309;-72
2022/09/22 23:16:27;;;;;;;112.52;56.95;;;;;;;5.70;87.66;101261.59;1746772;81;21512;-72
2022/09/22 23:18:55;;;;;;;130.70;65.20;;;;;;;5.63;87.72;101264.34;1740725;80;21998;-72
2022/09/22 23:21:21;;;;;;;86.32;45.67;;;;;;;5.61;87.78;101260.95;1747667;80;21039;-73
2022/09/22 23:23:48;;;;;;;85.57;46.53;;;;;;;5.55;87.80;101262.27;1746401;81;21054;-72
2022/09/22 23:26:15;;;;;;;62.30;36.33;;;;;;;5.56;87.85;101263.12;1742557;81;21524;-72
2022/09/22 23:28:41;;;;;;;81.37;40.83;;;;;;;5.58;87.90;101261.19;1741728;80;21048;-73
2022/09/22 23:31:15;;;;;;;57.13;33.88;;;;;;;5.57;87.95;101262.98;1749510;81;21290;-73
2022/09/22 23:33:44;;;;;;;56.10;32.25;;;;;;;5.62;88.00;101257.35;1752182;81;21015;-73
2022/09/22 23:36:14;;;;;;;74.60;39.30;;;;;;;5.58;88.18;101250.60;1750779;81;21051;-73
2022/09/22 23:38:40;;;;;;;51.88;31.55;;;;;;;5.58;88.18;101250.60;1747062;81;21401;-73
2022/09/22 23:41:07;;;;;;;80.45;47.10;;;;;;;5.54;88.05;101245.55;1730527;81;21542;-73
2022/09/22 23:43:34;;;;;;;79.60;45.43;;;;;;;5.56;88.13;101244.59;1753140;81;21288;-72
2022/09/22 23:46:03;;;;;;;52.78;32.28;;;;;;;5.52;88.18;101248.77;1746252;81;21015;-73
2022/09/22 23:48:29;;;;;;;71.77;40.92;;;;;;;5.47;88.26;101250.95;1753437;81;20995;-73
2022/09/22 23:50:56;;;;;;;68.33;35.30;;;;;;;5.47;88.29;101241.69;1752787;81;21094;-73
2022/09/22 23:53:23;;;;;;;65.10;37.33;;;;;;;5.47;88.29;101244.33;1724199;81;21037;-73
2022/09/22 23:55:49;;;;;;;65.10;35.85;;;;;;;5.51;88.30;101241.82;1743765;81;21619;-73
2022/09/22 23:58:16;;;;;;;72.40;40.20;;;;;;;5.47;88.33;101245.66;1747444;80;21026;-73
